РУС

ENG

 
  Pireps - S7
 

Рейс SBI1016

  • Выполнял: Danil Belov
  • Аэропорт отправления: Pulkovo Airport (ULLI)
  • Аэропорт назначения: Domodedovo Airport (UUDD)
  • Тип ВС: A320-214 (VQ-BDF)
  • Время полёта: 01.37
  • Дата полёта: 10.12.2020
  • Маршрут: SUGIN R904 KANET T576 NAMIN
  • Статус: Одобрен

Детали полёта
Gross Revenue:
(132 load / $ 150.00 per unit
$ 19, 800.00
Fuel Cost:
(3765 fuel used @ 5.1 / unit)
$ 19, 201.50


Дополнительная информация о полёте:

Лог

Aircraft Used in flight is Aerosoft Airbus A320Neo S7 VQ-BCF
14:56 Boarding
14:56 Engine 1 Started
14:56 Engine 2 Started
14:56 Beacon Lights ON at 90 AGL
14:56 Brakes are On
14:59 Navigation Lights ON at 90 AGL
14:59 Strobe Lights ON at 90 AGL
15:10 Taxi Lights ON at 90 AGL
15:12 Brakes are Released
15:14Flaps 1 Selected at 90ft and 14kts
15:14Flaps 2 Selected at 90ft and 14kts
15:14Flaps 3 Selected at 90ft and 14kts
15:19 Landing Lights ON at 90 AGL
15:20 You Took off @ 178 Knots and Flaps at Position 3
Departure Weather
ULLI 101200Z 13004MPS CAVOK M05/M10 Q1028 R10L/190055 NOSIG
15:20 Landing Gear Up @ 183 Knots and 130 Feet
15:20 Taxi Lights OFF at 130 AGL
15:21Flaps 2 Selected at 620ft and 194kts
15:21Flaps 1 Selected at 1200ft and 210kts
15:21 You exceeded maximum bank angle
15:21Flaps Retracted at 1410ft and 220kts
15:23 Landing Lights OFF at 5270 AGL
15:25 Below 10000 feet you are not allowed to go over 250 knots
15:36 TOC Reached
16:19 Landing Lights ON at 5310 AGL
16:20Flaps 1 Selected at 3010ft and 230kts
16:21Flaps 2 Selected at 2920ft and 201kts
16:21Flaps 3 Selected at 2920ft and 201kts
16:21 Landing Gear Down @ 182 Knots and 2940 Feet
16:21Flaps 4 Selected at 2970ft and 175kts
16:21Flaps 5 Selected at 2940ft and 158kts
16:27 You Landed @ 130 Knots and with -200 Vertical Speed
Arrival Weather
UUDD 101130Z 14004MPS CAVOK M06/M13 Q1035 R88/190050 NOSIG
16:27Flaps Retracted at 600ft and 33kts
16:28 Taxi Lights ON at 600 AGL
16:28 Landing Lights OFF at 600 AGL
16:31 Brakes are On
16:31 Engine 1 Stoped
16:31 Engine 2 Stoped
16:31 Taxi Lights OFF at 600 AGL
16:31 Strobe Lights OFF at 600 AGL
Pirep logged with S7 Tracking 1.0.0.14



Общая оценка полета : 100%




Route Map



 
 
   
 
Новости

03.09.2020 - Полеты в MFS 2020

Спешим сообщить вам, что теперь наш S7 Pad поддерживается для полетов в новом симуляторе MFS 2020. В разделе Загрузки вы найдете FSUIPC7.rar
Инструкция для запуска прилагается!

   
 
Авторизация






Регистрация

Восстановить пароль?

Мы в соц. сетях

      



   
 





   
 


   
 


Яндекс.Метрика

www.va-s7.ru 2011-2021
Все права защищены.



Минуточку внимания!
Сайт va-s7.ru не является коммерческим проектом. Мы не имеем отношения к торговым маркам "S7" и "Globus" и их представителям.
Эмблемы на сайте являются собственностью соответствующих компаний.

аэронавигационная метеорологическая и любая другая информация с данного ресурса ни в коем случае не должна использоваться для реальных полетов